createdAt,value
2022-12-17T00:02:44.622Z,33.38
2022-12-17T00:05:34.618Z,32.33
2022-12-17T00:08:20.554Z,33.55
2022-12-17T00:11:16.991Z,34.92
2022-12-17T00:14:03.203Z,32.08
2022-12-17T00:16:48.918Z,35.00
2022-12-17T00:19:34.797Z,31.83
2022-12-17T00:22:20.610Z,32.85
2022-12-17T00:25:06.277Z,30.90
2022-12-17T00:27:52.118Z,32.75
2022-12-17T00:30:38.456Z,31.55
2022-12-17T00:33:24.593Z,31.10
2022-12-17T00:36:12.265Z,30.38
2022-12-17T00:38:58.500Z,31.02
2022-12-17T00:41:44.786Z,31.17
2022-12-17T00:44:30.596Z,31.80
2022-12-17T00:47:16.398Z,30.98
2022-12-17T00:50:02.329Z,29.23
2022-12-17T00:52:48.301Z,29.02
2022-12-17T00:55:34.318Z,30.38
2022-12-17T00:58:20.436Z,30.30
2022-12-17T01:01:06.301Z,33.58
2022-12-17T01:03:52.054Z,31.63
2022-12-17T01:06:51.996Z,30.67
2022-12-17T01:12:25.087Z,30.08
2022-12-17T01:15:10.972Z,30.83
2022-12-17T01:17:56.771Z,29.92
2022-12-17T01:20:42.648Z,29.67
2022-12-17T01:23:28.407Z,30.30
2022-12-17T01:26:15.967Z,30.73
2022-12-17T01:29:02.217Z,30.67
2022-12-17T01:31:48.210Z,31.70
2022-12-17T01:34:34.258Z,29.60
2022-12-17T01:37:20.151Z,29.17
2022-12-17T01:40:05.899Z,28.67
2022-12-17T01:43:04.920Z,28.92
2022-12-17T01:46:00.395Z,29.70
2022-12-17T01:48:56.763Z,27.20
2022-12-17T01:51:44.795Z,28.70
2022-12-17T01:54:32.371Z,27.67
2022-12-17T01:57:20.533Z,27.10
2022-12-17T02:00:25.548Z,26.10
2022-12-17T02:03:11.541Z,30.15
2022-12-17T02:06:09.864Z,32.40
2022-12-17T02:09:03.178Z,29.83
2022-12-17T02:12:07.790Z,30.80
2022-12-17T02:15:07.525Z,26.65
2022-12-17T02:18:00.686Z,24.67
2022-12-17T02:20:52.667Z,23.30
2022-12-17T02:24:04.278Z,21.27
2022-12-17T02:27:03.915Z,22.63
2022-12-17T02:29:58.255Z,24.60
2022-12-17T02:32:45.499Z,26.95
2022-12-17T02:35:42.592Z,22.30
2022-12-17T02:38:46.817Z,23.15
2022-12-17T02:41:53.544Z,22.42
2022-12-17T02:44:40.674Z,21.90
2022-12-17T02:47:41.735Z,22.75
2022-12-17T02:50:28.680Z,23.25
2022-12-17T02:53:16.994Z,21.42
2022-12-17T02:56:02.948Z,21.73
2022-12-17T02:58:48.798Z,21.88
2022-12-17T03:01:34.928Z,20.83
2022-12-17T03:04:21.049Z,21.38
2022-12-17T03:07:06.935Z,21.55
2022-12-17T03:09:52.848Z,21.50
2022-12-17T03:12:38.660Z,21.98
2022-12-17T03:15:24.743Z,21.38
2022-12-17T03:18:10.467Z,20.90
2022-12-17T03:20:56.199Z,22.88
2022-12-17T03:23:42.015Z,21.35
2022-12-17T03:26:28.072Z,22.30
2022-12-17T03:29:13.750Z,21.60
2022-12-17T03:31:59.518Z,22.60
2022-12-17T03:34:45.437Z,21.95
2022-12-17T03:37:31.428Z,25.63
2022-12-17T03:40:17.215Z,22.15
2022-12-17T03:43:03.068Z,21.58
2022-12-17T03:45:48.891Z,22.27
2022-12-17T03:48:34.794Z,20.65
2022-12-17T03:51:21.047Z,20.15
2022-12-17T03:54:07.015Z,19.27
2022-12-17T03:56:52.983Z,17.63
2022-12-17T03:59:38.891Z,18.98
2022-12-17T04:02:25.307Z,17.83
2022-12-17T04:05:16.562Z,16.15
2022-12-17T04:08:05.969Z,17.85
2022-12-17T04:10:51.642Z,15.70
2022-12-17T04:13:40.678Z,16.60
2022-12-17T04:16:27.623Z,15.23
2022-12-17T04:19:13.429Z,15.25
2022-12-17T04:21:59.756Z,15.82
2022-12-17T04:24:45.582Z,15.35
2022-12-17T04:27:31.548Z,14.68
2022-12-17T04:30:17.420Z,15.45
2022-12-17T04:33:03.114Z,15.15
2022-12-17T04:35:48.867Z,15.02
2022-12-17T04:38:34.781Z,15.05
2022-12-17T04:41:20.681Z,13.73
2022-12-17T04:44:06.656Z,13.85
2022-12-17T04:46:52.307Z,14.23
2022-12-17T04:49:38.072Z,14.75
2022-12-17T04:52:23.963Z,13.70
2022-12-17T04:55:09.661Z,15.02
2022-12-17T04:57:55.376Z,15.68
2022-12-17T05:00:41.090Z,16.45
2022-12-17T05:03:33.190Z,18.60
2022-12-17T05:06:19.610Z,20.63
2022-12-17T05:09:05.444Z,19.65
2022-12-17T05:11:51.263Z,17.88
2022-12-17T05:14:37.552Z,18.73
2022-12-17T05:17:23.555Z,19.63
2022-12-17T05:20:09.401Z,21.65
2022-12-17T05:22:55.319Z,22.45
2022-12-17T05:25:41.072Z,23.90
2022-12-17T05:28:27.017Z,25.83
2022-12-17T05:31:14.498Z,27.75
2022-12-17T05:34:00.377Z,28.83
2022-12-17T05:36:46.674Z,29.92
2022-12-17T05:39:32.714Z,31.50
2022-12-17T05:42:18.473Z,30.67
2022-12-17T05:45:04.562Z,31.98
2022-12-17T05:47:50.482Z,31.58
2022-12-17T05:50:36.365Z,33.60
2022-12-17T05:53:25.279Z,31.10
2022-12-17T05:56:11.817Z,31.08
2022-12-17T05:58:58.190Z,31.27
2022-12-17T06:01:44.078Z,29.65
2022-12-17T06:04:30.251Z,29.27
2022-12-17T06:07:16.058Z,28.60
2022-12-17T06:10:01.905Z,27.65
2022-12-17T06:12:47.888Z,29.35
2022-12-17T06:15:33.977Z,27.02
2022-12-17T06:18:19.807Z,26.90
2022-12-17T06:21:07.122Z,28.38
2022-12-17T06:23:52.928Z,28.25
2022-12-17T06:26:38.955Z,27.05
2022-12-17T06:29:24.688Z,25.45
2022-12-17T06:32:10.602Z,24.50
2022-12-17T06:34:58.212Z,24.30
2022-12-17T06:37:44.196Z,23.27
2022-12-17T06:40:30.275Z,23.98
2022-12-17T06:43:16.373Z,21.30
2022-12-17T06:46:02.224Z,21.75
2022-12-17T06:48:48.118Z,21.00
2022-12-17T06:51:33.890Z,19.75
2022-12-17T06:54:19.698Z,21.20
2022-12-17T06:57:05.653Z,15.70
2022-12-17T06:59:51.468Z,16.20
2022-12-17T07:02:37.170Z,16.13
2022-12-17T07:05:23.556Z,11.38
2022-12-17T07:08:19.154Z,8.45
2022-12-17T07:11:04.965Z,6.15
2022-12-17T07:13:50.909Z,5.65
2022-12-17T07:16:36.870Z,4.95
2022-12-17T07:19:27.238Z,4.78
2022-12-17T07:22:14.295Z,4.60
2022-12-17T07:25:00.697Z,5.18
2022-12-17T07:27:46.370Z,4.00
2022-12-17T07:30:32.366Z,3.80
2022-12-17T07:33:24.435Z,4.30
2022-12-17T07:36:14.286Z,4.45
2022-12-17T07:39:00.081Z,3.83
2022-12-17T07:41:46.452Z,3.85
2022-12-17T07:44:32.227Z,3.40
2022-12-17T07:47:17.966Z,3.63
2022-12-17T07:50:03.995Z,3.78
2022-12-17T07:52:49.980Z,2.97
2022-12-17T07:55:35.821Z,3.33
2022-12-17T07:58:24.578Z,3.28
2022-12-17T08:01:10.476Z,3.45
2022-12-17T08:03:56.320Z,3.60
2022-12-17T08:06:42.187Z,3.78
2022-12-17T08:09:27.960Z,3.30
2022-12-17T08:12:13.693Z,8.20
2022-12-17T08:14:59.401Z,3.95
2022-12-17T08:17:45.268Z,4.10
2022-12-17T08:20:31.387Z,3.60
2022-12-17T08:23:40.613Z,3.78
2022-12-17T08:26:26.741Z,3.67
2022-12-17T08:29:12.887Z,3.63
2022-12-17T08:31:58.724Z,3.35
2022-12-17T08:34:44.439Z,3.42
2022-12-17T08:37:30.290Z,3.15
2022-12-17T08:40:16.169Z,3.40
2022-12-17T08:43:01.812Z,3.17
2022-12-17T08:45:47.870Z,3.20
2022-12-17T08:48:33.650Z,3.25
2022-12-17T08:51:19.506Z,3.00
2022-12-17T08:54:05.524Z,3.65
2022-12-17T08:56:51.272Z,4.28
2022-12-17T08:59:38.122Z,2.97
2022-12-17T09:02:24.469Z,3.13
2022-12-17T09:05:10.529Z,3.65
2022-12-17T09:07:56.723Z,4.30
2022-12-17T09:10:42.570Z,3.92
2022-12-17T09:13:28.469Z,6.88
2022-12-17T09:16:14.950Z,6.68
2022-12-17T09:19:01.362Z,4.90
2022-12-17T09:21:48.716Z,3.65
2022-12-17T09:24:35.186Z,3.97
2022-12-17T09:27:21.012Z,4.13
2022-12-17T09:30:06.844Z,3.47
2022-12-17T09:32:52.595Z,5.07
2022-12-17T09:35:38.486Z,3.83
2022-12-17T09:38:24.404Z,4.18
2022-12-17T09:41:10.951Z,4.78
2022-12-17T09:44:18.081Z,5.22
2022-12-17T09:47:08.928Z,6.22
2022-12-17T09:49:56.309Z,5.38
2022-12-17T09:52:47.184Z,5.13
2022-12-17T09:56:00.765Z,6.57
2022-12-17T09:58:48.449Z,5.47
2022-12-17T10:01:46.856Z,8.25
2022-12-17T10:05:01.286Z,5.97
2022-12-17T10:07:54.961Z,5.32
2022-12-17T10:10:50.913Z,4.80
2022-12-17T10:13:40.637Z,6.13
2022-12-17T10:16:57.823Z,5.95
2022-12-17T10:20:00.030Z,5.15
2022-12-17T10:22:45.892Z,4.30
2022-12-17T10:25:36.207Z,5.22
2022-12-17T10:28:33.443Z,4.43
2022-12-17T10:31:20.325Z,5.60
2022-12-17T10:34:06.322Z,5.00
2022-12-17T10:36:52.641Z,4.38
2022-12-17T10:39:43.212Z,5.57
2022-12-17T10:42:59.466Z,5.90
2022-12-17T10:45:54.518Z,5.10
2022-12-17T10:48:49.832Z,4.53
2022-12-17T10:51:53.122Z,4.75
2022-12-17T10:54:48.687Z,5.25
2022-12-17T10:57:52.187Z,4.20
2022-12-17T11:00:50.034Z,6.50
2022-12-17T11:04:07.770Z,6.32
2022-12-17T11:07:01.631Z,6.00
2022-12-17T11:10:12.204Z,5.13
2022-12-17T11:13:14.624Z,5.80
2022-12-17T11:16:19.785Z,5.40
2022-12-17T11:19:15.935Z,5.38
2022-12-17T11:22:07.204Z,4.15
2022-12-17T11:25:02.256Z,4.25
2022-12-17T11:27:54.966Z,4.55
2022-12-17T11:30:55.021Z,4.93
2022-12-17T11:33:49.159Z,4.25
2022-12-17T11:36:47.130Z,3.80
2022-12-17T11:39:48.494Z,4.35
2022-12-17T11:45:55.612Z,4.72
2022-12-17T11:48:50.042Z,4.30
2022-12-17T11:51:43.619Z,3.58
2022-12-17T11:54:40.668Z,4.10
2022-12-17T11:57:39.594Z,3.65
2022-12-17T12:00:32.122Z,4.03
2022-12-17T12:03:50.587Z,4.80
2022-12-17T12:07:09.749Z,3.90
2022-12-17T12:10:11.513Z,4.63
2022-12-17T12:13:14.170Z,4.35
2022-12-17T12:16:03.199Z,5.15
2022-12-17T12:19:07.017Z,3.65
2022-12-17T12:22:28.886Z,4.38
2022-12-17T12:25:39.267Z,4.70
2022-12-17T12:29:00.731Z,4.35
2022-12-17T12:31:58.564Z,5.10
2022-12-17T12:34:49.933Z,5.13
2022-12-17T12:37:37.729Z,4.53
2022-12-17T12:40:46.427Z,3.55
2022-12-17T12:43:47.068Z,3.30
2022-12-17T12:47:02.453Z,3.63
2022-12-17T12:49:56.889Z,3.78
2022-12-17T12:52:46.110Z,4.07
2022-12-17T12:55:32.584Z,5.03
2022-12-17T12:58:21.385Z,5.63
2022-12-17T13:01:07.377Z,3.83
2022-12-17T13:04:02.380Z,4.57
2022-12-17T13:06:51.348Z,6.97
2022-12-17T13:09:23.170Z,6.22
2022-12-17T13:12:02.450Z,7.38
2022-12-17T13:14:36.795Z,8.55
2022-12-17T13:17:18.778Z,6.53
2022-12-17T13:19:58.338Z,8.07
2022-12-17T13:22:33.490Z,6.07
2022-12-17T13:25:17.871Z,5.97
2022-12-17T13:27:46.928Z,8.35
2022-12-17T13:30:18.778Z,6.20
2022-12-17T13:33:08.364Z,7.75
2022-12-17T13:35:46.175Z,7.45
2022-12-17T13:38:34.145Z,7.20
2022-12-17T13:41:16.737Z,10.13
2022-12-17T13:43:49.173Z,6.88
2022-12-17T13:46:23.361Z,7.85
2022-12-17T13:49:02.585Z,9.10
2022-12-17T13:51:35.017Z,10.23
2022-12-17T13:54:04.323Z,11.02
2022-12-17T13:56:36.859Z,14.10
2022-12-17T13:59:09.198Z,11.23
2022-12-17T14:01:48.357Z,9.25
2022-12-17T14:04:27.602Z,17.00
2022-12-17T14:06:59.011Z,14.48
2022-12-17T14:09:39.048Z,10.27
2022-12-17T14:12:22.532Z,6.95
2022-12-17T14:14:59.882Z,6.70
2022-12-17T14:17:42.617Z,7.10
2022-12-17T14:20:29.315Z,7.32
2022-12-17T14:23:08.149Z,7.55
2022-12-17T14:25:40.844Z,7.72
2022-12-17T14:28:21.801Z,6.90
2022-12-17T14:31:24.857Z,6.80
2022-12-17T14:33:38.070Z,7.25
2022-12-17T14:36:23.608Z,7.65
2022-12-17T14:39:03.290Z,8.05
2022-12-17T14:41:56.746Z,5.78
2022-12-17T14:44:29.315Z,5.78
2022-12-17T14:47:23.579Z,6.38
2022-12-17T14:50:01.775Z,5.78
2022-12-17T14:52:48.876Z,6.97
2022-12-17T14:55:36.488Z,6.55
2022-12-17T14:58:23.638Z,7.40
2022-12-17T15:01:04.746Z,8.75
2022-12-17T15:06:04.516Z,9.27
2022-12-17T15:08:39.663Z,8.52
2022-12-17T15:11:07.845Z,7.72
2022-12-17T15:13:35.220Z,8.93
2022-12-17T15:16:02.634Z,11.02
2022-12-17T15:18:30.202Z,9.80
2022-12-17T15:20:57.898Z,9.23
2022-12-17T15:23:25.892Z,8.93
2022-12-17T15:25:54.526Z,8.85
2022-12-17T15:28:22.535Z,9.52
2022-12-17T15:30:50.373Z,9.18
2022-12-17T15:33:17.930Z,9.88
2022-12-17T15:35:45.405Z,10.52
2022-12-17T15:38:12.905Z,10.27
2022-12-17T15:40:40.988Z,9.27
2022-12-17T15:43:13.488Z,8.57
2022-12-17T15:45:46.226Z,8.40
2022-12-17T15:48:17.999Z,8.77
2022-12-17T15:50:45.749Z,9.73
2022-12-17T15:53:13.275Z,8.80
2022-12-17T15:55:41.080Z,9.80
2022-12-17T15:58:09.092Z,9.55
2022-12-17T16:00:36.519Z,9.90
2022-12-17T16:03:04.667Z,9.15
2022-12-17T16:05:32.380Z,8.57
2022-12-17T16:08:02.508Z,8.88
2022-12-17T16:10:30.316Z,9.48
2022-12-17T16:12:57.819Z,9.98
2022-12-17T16:15:25.307Z,8.75
2022-12-17T16:17:52.990Z,9.25
2022-12-17T16:20:20.595Z,8.60
2022-12-17T16:22:48.166Z,10.40
2022-12-17T16:25:15.616Z,9.65
2022-12-17T16:27:43.263Z,10.00
2022-12-17T16:30:11.387Z,9.68
2022-12-17T16:32:38.862Z,10.68
2022-12-17T16:35:07.004Z,10.10
2022-12-17T16:37:34.352Z,10.25
2022-12-17T16:40:01.918Z,8.73
2022-12-17T16:42:29.445Z,9.13
2022-12-17T16:44:56.769Z,8.68
2022-12-17T16:47:24.364Z,9.23
2022-12-17T16:49:51.780Z,8.23
2022-12-17T16:52:19.227Z,8.48
2022-12-17T16:54:46.635Z,8.63
2022-12-17T16:57:14.183Z,7.88
2022-12-17T16:59:41.571Z,7.78
2022-12-17T17:02:18.175Z,8.52
2022-12-17T17:04:46.350Z,7.85
2022-12-17T17:07:13.900Z,7.72
2022-12-17T17:09:41.296Z,7.15
2022-12-17T17:12:11.846Z,8.15
2022-12-17T17:14:43.788Z,8.65
2022-12-17T17:17:11.131Z,7.73
2022-12-17T17:19:38.425Z,6.70
2022-12-17T17:22:05.796Z,6.03
2022-12-17T17:24:33.199Z,6.68
2022-12-17T17:27:01.727Z,6.30
2022-12-17T17:29:29.418Z,6.18
2022-12-17T17:32:13.155Z,6.20
2022-12-17T17:34:41.844Z,5.63
2022-12-17T17:37:09.335Z,5.53
2022-12-17T17:39:36.679Z,6.00
2022-12-17T17:42:04.196Z,6.50
2022-12-17T17:44:31.624Z,6.05
2022-12-17T17:46:59.227Z,6.80
2022-12-17T17:49:26.783Z,6.10
2022-12-17T17:52:10.938Z,7.28
2022-12-17T17:54:39.654Z,7.07
2022-12-17T17:57:07.996Z,7.28
2022-12-17T17:59:35.369Z,8.25
2022-12-17T18:02:03.547Z,6.72
2022-12-17T18:04:31.910Z,6.93
2022-12-17T18:09:46.726Z,5.72
2022-12-17T18:12:32.569Z,6.65
2022-12-17T18:15:17.295Z,7.72
2022-12-17T18:17:49.225Z,8.85
2022-12-17T18:20:17.304Z,11.13
2022-12-17T18:22:46.134Z,11.75
2022-12-17T18:25:14.511Z,13.27
2022-12-17T18:27:42.596Z,11.60
2022-12-17T18:30:10.725Z,11.38
2022-12-17T18:32:38.072Z,7.60
2022-12-17T18:35:05.873Z,7.90
2022-12-17T18:37:33.365Z,7.75
2022-12-17T18:40:00.770Z,7.57
2022-12-17T18:42:46.901Z,7.80
2022-12-17T18:45:14.462Z,7.50
2022-12-17T18:47:42.630Z,7.47
2022-12-17T18:50:11.039Z,8.50
2022-12-17T18:52:38.809Z,7.75
2022-12-17T18:55:06.790Z,7.60
2022-12-17T18:57:34.106Z,7.88
2022-12-17T19:00:01.531Z,7.45
2022-12-17T19:02:28.961Z,8.57
2022-12-17T19:04:56.466Z,7.55
2022-12-17T19:07:25.711Z,8.10
2022-12-17T19:09:53.243Z,7.70
2022-12-17T19:12:20.991Z,8.07
2022-12-17T19:14:48.653Z,8.52
2022-12-17T19:17:15.963Z,7.85
2022-12-17T19:19:43.303Z,8.73
2022-12-17T19:22:10.745Z,7.82
2022-12-17T19:24:38.125Z,8.52
2022-12-17T19:27:05.612Z,8.13
2022-12-17T19:29:33.292Z,8.35
2022-12-17T19:32:00.679Z,8.27
2022-12-17T19:34:28.098Z,7.43
2022-12-17T19:36:55.377Z,9.30
2022-12-17T19:39:22.825Z,8.02
2022-12-17T19:41:50.978Z,9.23
2022-12-17T19:44:20.471Z,8.52
2022-12-17T19:46:47.877Z,8.80
2022-12-17T19:49:17.508Z,9.35
2022-12-17T19:51:45.124Z,9.38
2022-12-17T19:54:15.253Z,8.18
2022-12-17T19:56:44.591Z,8.85
2022-12-17T19:59:12.745Z,9.13
2022-12-17T20:01:46.566Z,9.02
2022-12-17T20:04:16.004Z,9.18
2022-12-17T20:06:44.719Z,9.25
2022-12-17T20:09:14.238Z,9.82
2022-12-17T20:11:41.847Z,9.18
2022-12-17T20:14:26.593Z,8.80
2022-12-17T20:16:59.549Z,10.23
2022-12-17T20:19:31.093Z,9.52
2022-12-17T20:22:00.184Z,10.25
2022-12-17T20:24:31.576Z,10.00
2022-12-17T20:27:00.481Z,10.60
2022-12-17T20:29:28.842Z,10.13
2022-12-17T20:31:56.495Z,10.63
2022-12-17T20:34:25.404Z,11.23
2022-12-17T20:36:53.935Z,13.27
2022-12-17T20:39:27.300Z,12.68
2022-12-17T20:41:56.537Z,13.23
2022-12-17T20:44:24.066Z,13.50
2022-12-17T20:46:51.460Z,13.35
2022-12-17T20:49:18.887Z,12.23
2022-12-17T20:51:46.331Z,13.75
2022-12-17T20:54:13.792Z,12.10
2022-12-17T20:56:41.254Z,13.30
2022-12-17T20:59:13.068Z,13.40
2022-12-17T21:01:40.712Z,12.85
2022-12-17T21:04:08.400Z,13.38
2022-12-17T21:06:38.724Z,14.02
2022-12-17T21:09:06.513Z,14.35
2022-12-17T21:11:35.276Z,14.55
2022-12-17T21:14:08.692Z,13.90
2022-12-17T21:16:38.302Z,13.57
2022-12-17T21:19:07.191Z,14.77
2022-12-17T21:21:37.027Z,14.13
2022-12-17T21:24:05.260Z,16.67
2022-12-17T21:26:38.428Z,14.63
2022-12-17T21:29:08.043Z,14.85
2022-12-17T21:31:51.163Z,15.85
2022-12-17T21:34:23.929Z,13.68
2022-12-17T21:36:51.974Z,14.38
2022-12-17T21:39:20.366Z,12.48
2022-12-17T21:42:08.792Z,16.10
2022-12-17T21:44:36.947Z,15.30
2022-12-17T21:47:04.688Z,15.57
2022-12-17T21:49:32.527Z,15.77
2022-12-17T21:52:01.002Z,17.52
2022-12-17T21:54:28.529Z,16.75
2022-12-17T21:56:55.954Z,16.67
2022-12-17T21:59:23.489Z,17.83
2022-12-17T22:01:51.526Z,15.25
2022-12-17T22:04:19.308Z,17.45
2022-12-17T22:06:52.814Z,16.35
2022-12-17T22:09:42.363Z,17.30
2022-12-17T22:12:31.710Z,18.60
2022-12-17T22:14:59.068Z,16.45
2022-12-17T22:17:26.995Z,16.38
2022-12-17T22:19:54.415Z,17.50
2022-12-17T22:22:21.767Z,19.92
2022-12-17T22:24:49.167Z,19.70
2022-12-17T22:27:16.744Z,21.23
2022-12-17T22:30:02.687Z,18.45
2022-12-17T22:32:48.858Z,19.15
2022-12-17T22:36:51.849Z,18.38
2022-12-17T22:42:59.325Z,20.27
2022-12-17T22:44:29.673Z,20.20
2022-12-17T22:44:51.306Z,20.70
2022-12-17T22:46:29.455Z,20.85
2022-12-17T22:48:57.611Z,20.40
2022-12-17T22:51:39.659Z,21.85
2022-12-17T22:54:09.781Z,23.38
2022-12-17T22:57:24.758Z,21.45
2022-12-17T22:59:26.838Z,21.25
2022-12-17T23:01:54.522Z,19.70
2022-12-17T23:04:22.081Z,20.65
2022-12-17T23:06:49.536Z,20.98
2022-12-17T23:09:19.239Z,22.52
2022-12-17T23:11:48.177Z,20.45
2022-12-17T23:14:16.846Z,21.77
2022-12-17T23:16:45.085Z,21.27
2022-12-17T23:19:14.392Z,21.65
2022-12-17T23:21:42.159Z,19.67
2022-12-17T23:24:09.886Z,19.42
2022-12-17T23:26:38.006Z,20.50
2022-12-17T23:29:08.611Z,21.17
2022-12-17T23:31:40.131Z,21.50
2022-12-17T23:34:08.281Z,19.55
2022-12-17T23:36:37.234Z,20.80
2022-12-17T23:39:05.584Z,20.73
2022-12-17T23:41:33.485Z,21.13
2022-12-17T23:44:01.235Z,18.98
2022-12-17T23:46:30.324Z,20.20
2022-12-17T23:48:57.898Z,19.50
2022-12-17T23:51:26.035Z,20.63
2022-12-17T23:53:53.561Z,19.92
2022-12-17T23:56:24.267Z,20.25
2022-12-17T23:59:00.418Z,19.77
